Latest Weather Observations for Cape Grim

IDT60801

Issued at 4:02 am EST Friday 29 July 2016 (issued every 30 minutes, with the page automatically refreshed every 10 minutes)

About weather observations | Map of weather stations | Latest weather observations for TAS | Other Formats
Station Details ID: 091331 Name: CAPE GRIM Lat: -40.68 Lon: 144.69 Height: 86.0 m
Data from the previous 72 hours. | See also: Recent months at Cape Grim
Date/Time
EST
Temp
°C
App
Temp
°C
Dew
Point
°C
Rel
Hum
%
Delta-T
°C
Wind Press
QNH
hPa
Press
MSL
hPa
Rain since
9am
mm
Dir  Spd
km/h
Gust
km/h
Spd
kts
Gust
kts
29/04:00am 11.3 4.0 8.7 84 1.3 W 37 54 20 29 1013.7 1013.8 2.4
29/03:54am 11.3 4.4 8.7 84 1.3 W 35 54 19 29 1013.8 1013.9 2.4
29/03:30am 11.1 3.7 8.5 84 1.3 W 37 50 20 27 1014.0 1014.1 2.4
29/03:00am 10.5 3.2 8.8 89 0.8 W 37 54 20 29 1014.2 1014.3 2.4
29/02:30am 10.9 4.0 9.0 88 0.9 W 35 48 19 26 1014.4 1014.5 2.4
29/02:00am 10.8 3.6 9.1 89 0.8 W 37 52 20 28 1014.5 1014.6 2.4
29/01:36am 11.2 3.1 8.8 85 1.2 W 41 59 22 32 1014.7 1014.8 2.2
29/01:30am 11.1 2.0 8.3 83 1.4 W 46 59 25 32 1014.7 1014.8 2.2
29/01:00am 11.4 4.4 8.4 82 1.5 W 35 50 19 27 1014.9 1015.0 2.2
29/12:30am 11.3 4.3 8.3 82 1.5 W 35 56 19 30 1015.1 1015.2 2.2
29/12:09am 11.1 3.0 8.5 84 1.3 W 41 61 22 33 1015.2 1015.3 2.2
29/12:00am 11.0 3.7 8.6 85 1.2 W 37 52 20 28 1015.3 1015.4 2.2
 
Date/Time
EST
Temp
°C
App
Temp
°C
Dew
Point
°C
Rel
Hum
%
Delta-T
°C
Wind Press
QNH
hPa
Press
MSL
hPa
Rain since
9am
mm
Dir  Spd
km/h
Gust
km/h
Spd
kts
Gust
kts
28/11:30pm 11.0 3.4 8.9 87 1.0 W 39 59 21 32 1015.5 1015.6 2.2
28/11:00pm 10.6 3.0 9.2 91 0.7 W 39 57 21 31 1015.6 1015.7 2.0
28/10:38pm 10.5 1.9 8.8 89 0.8 W 44 63 24 34 1015.9 1016.0 1.6
28/10:30pm 10.9 1.9 8.8 87 1.0 W 46 59 25 32 1015.9 1016.0 1.4
28/10:00pm 11.2 4.6 8.4 83 1.4 W 33 52 18 28 1016.2 1016.3 1.4
28/09:30pm 11.0 4.6 8.4 84 1.3 W 32 50 17 27 1016.5 1016.6 1.4
28/09:04pm 11.0 3.1 7.9 81 1.5 W 39 57 21 31 1016.6 1016.7 1.4
28/09:00pm 10.9 3.4 7.8 81 1.5 W 37 50 20 27 1016.8 1016.9 1.4
28/08:37pm 11.4 4.0 6.7 73 2.2 W 35 54 19 29 1016.9 1017.0 1.4
28/08:30pm 11.3 3.1 6.6 73 2.2 W 39 54 21 29 1016.8 1016.9 1.4
28/08:00pm 10.8 2.3 6.9 77 1.9 W 41 57 22 31 1017.0 1017.1 1.4
28/07:31pm 10.7 3.2 8.1 84 1.3 W 37 56 20 30 1016.8 1016.9 1.4
28/07:30pm 10.9 3.5 8.5 85 1.2 W 37 48 20 26 1016.8 1016.9 1.4
28/07:29pm 10.9 3.5 8.3 84 1.3 W 37 48 20 26 1016.8 1016.9 1.4
28/07:00pm 10.7 3.9 9.3 91 0.7 W 35 54 19 29 1016.7 1016.8 1.2
28/06:56pm 10.7 3.9 9.3 91 0.7 W 35 54 19 29 1016.7 1016.8 1.2
28/06:40pm 10.9 3.7 9.3 90 0.8 W 37 54 20 29 1016.5 1016.6 1.2
28/06:33pm 11.0 4.8 9.3 89 0.9 W 32 54 17 29 1016.5 1016.6 1.0
28/06:30pm 10.9 4.5 9.2 89 0.9 W 33 44 18 24 1016.5 1016.6 1.0
28/06:00pm 11.1 4.5 8.5 84 1.3 W 33 50 18 27 1016.4 1016.5 1.0
28/05:30pm 11.2 4.5 8.2 82 1.5 W 33 50 18 27 1016.2 1016.3 1.0
28/05:00pm 11.6 2.7 6.9 73 2.2 W 43 65 23 35 1016.1 1016.2 1.0
28/04:30pm 11.5 2.3 6.4 71 2.4 W 44 69 24 37 1016.2 1016.3 1.0
28/04:17pm 11.4 2.1 6.1 70 2.5 W 44 63 24 34 1016.1 1016.2 0.8
28/04:00pm 11.4 2.6 7.3 76 2.0 W 43 56 23 30 1016.0 1016.1 0.8
28/03:37pm 10.5 1.2 7.6 82 1.4 W 46 67 25 36 1015.9 1016.0 0.8
28/03:30pm 11.4 2.6 7.1 75 2.1 W 43 59 23 32 1015.8 1015.9 0.8
28/03:00pm 11.3 2.5 7.2 76 2.0 W 43 61 23 33 1015.4 1015.5 0.8
28/02:30pm 11.0 3.2 8.1 82 1.4 W 39 67 21 36 1015.5 1015.6 0.8
28/02:00pm 11.1 3.6 8.1 82 1.5 W 37 57 20 31 1015.5 1015.6 0.8
28/01:43pm 10.8 2.8 8.9 88 0.9 W 41 59 22 32 1015.8 1015.9 0.8
28/01:42pm 10.8 2.4 9.1 89 0.8 W 43 59 23 32 1015.8 1015.9 0.8
28/01:30pm 10.1 1.4 8.4 89 0.8 W 44 65 24 35 1015.9 1016.0 0.8
28/01:00pm 10.7 2.5 8.1 84 1.3 W 41 67 22 36 1016.0 1016.1 0.2
28/12:30pm 11.5 2.9 8.0 79 1.7 W 43 65 23 35 1016.2 1016.3 0.0
28/12:00pm 10.9 1.8 8.3 84 1.3 W 46 67 25 36 1016.4 1016.5 0.0
28/11:30am 10.9 2.1 8.1 83 1.4 W 44 63 24 34 1016.6 1016.7 0.0
28/11:01am 10.9 2.3 8.3 84 1.3 W 43 61 23 33 1016.6 1016.7 0.0
28/11:00am 11.0 2.3 8.4 84 1.3 W 44 61 24 33 1016.6 1016.7 0.0
28/10:30am 11.1 3.0 8.7 85 1.2 W 41 61 22 33 1016.3 1016.4 0.0
28/10:03am 11.1 3.0 8.5 84 1.3 W 41 59 22 32 1016.3 1016.4 0.0
28/10:00am 11.5 3.4 8.5 82 1.5 W 41 54 22 29 1016.2 1016.3 0.0
28/09:30am 10.7 2.1 8.3 85 1.2 W 43 63 23 34 1016.3 1016.4 0.0
28/09:00am 11.2 2.8 8.9 86 1.1 W 43 61 23 33 1016.2 1016.3 3.0
28/08:41am 10.9 2.3 8.0 82 1.4 W 43 61 23 33 1016.0 1016.1 3.0
28/08:30am 10.8 2.3 8.6 86 1.1 W 43 59 23 32 1015.8 1015.9 3.0
28/08:00am 11.1 1.9 8.0 81 1.5 W 46 69 25 37 1015.6 1015.7 2.8
28/07:30am 10.7 2.4 9.3 91 0.7 W 43 61 23 33 1015.3 1015.4 2.8
28/07:00am 11.2 3.2 8.9 86 1.1 W 41 61 22 33 1015.2 1015.3 2.8
28/06:30am 11.0 3.1 9.4 90 0.8 W 41 61 22 33 1014.8 1014.9 2.6
28/06:00am 10.9 2.4 9.3 90 0.8 W 44 63 24 34 1014.7 1014.8 2.6
28/05:30am 11.2 2.6 8.9 86 1.1 W 44 65 24 35 1014.6 1014.7 2.6
28/05:05am 10.9 2.3 8.7 86 1.1 W 44 69 24 37 1014.3 1014.4 2.6
28/05:00am 11.3 2.7 9.0 86 1.1 W 44 59 24 32 1014.4 1014.5 2.6
28/04:33am 11.1 2.7 8.8 86 1.1 W 43 61 23 33 1014.4 1014.5 2.6
28/04:30am 11.1 3.1 9.0 87 1.0 W 41 56 22 30 1014.4 1014.5 2.6
28/04:00am 11.3 2.2 8.5 83 1.4 W 46 74 25 40 1014.4 1014.5 2.6
28/03:30am 11.2 2.8 9.1 87 1.1 W 43 61 23 33 1014.4 1014.5 2.6
28/03:00am 11.1 3.2 9.4 89 0.9 W 41 61 22 33 1014.6 1014.7 2.6
28/02:39am 11.2 3.3 9.5 89 0.9 W 41 59 22 32 1014.7 1014.8 2.6
28/02:30am 11.2 2.6 8.9 86 1.1 W 44 61 24 33 1014.7 1014.8 2.6
28/02:00am 10.9 2.9 9.0 88 0.9 W 41 65 22 35 1014.7 1014.8 2.6
28/01:30am 11.4 4.2 9.0 85 1.2 W 37 56 20 30 1014.5 1014.6 2.4
28/01:00am 11.2 3.9 8.9 86 1.1 W 37 59 20 32 1014.4 1014.5 2.4
28/12:30am 11.3 4.8 8.9 85 1.2 W 33 54 18 29 1014.3 1014.4 2.4
28/12:00am 11.2 4.7 8.9 86 1.1 W 33 54 18 29 1014.6 1014.7 2.2
 
Date/Time
EST
Temp
°C
App
Temp
°C
Dew
Point
°C
Rel
Hum
%
Delta-T
°C
Wind Press
QNH
hPa
Press
MSL
hPa
Rain since
9am
mm
Dir  Spd
km/h
Gust
km/h
Spd
kts
Gust
kts
27/11:30pm 10.8 4.5 9.1 89 0.8 W 32 50 17 27 1014.6 1014.7 2.2
27/11:03pm 11.3 3.7 9.0 86 1.1 W 39 57 21 31 1014.3 1014.4 2.0
27/11:00pm 11.2 3.6 8.9 86 1.1 W 39 56 21 30 1014.3 1014.4 2.0
27/10:30pm 11.1 3.1 9.0 87 1.0 W 41 69 22 37 1014.0 1014.1 2.0
27/10:00pm 11.6 4.2 8.5 81 1.5 WSW 37 63 20 34 1014.0 1014.1 1.4
27/09:30pm 11.3 4.2 9.4 88 1.0 WSW 37 59 20 32 1013.8 1013.9 1.4
27/09:11pm 11.1 3.5 9.0 87 1.0 WSW 39 70 21 38 1013.6 1013.7 1.2
27/09:00pm 11.7 4.3 9.9 89 0.9 W 39 61 21 33 1013.6 1013.7 1.2
27/08:35pm 11.2 2.3 9.3 88 1.0 W 46 65 25 35 1013.1 1013.2 0.8
27/08:30pm 11.3 2.5 9.6 89 0.9 W 46 63 25 34 1013.1 1013.2 0.8
27/08:00pm 11.3 1.5 8.7 84 1.3 W 50 76 27 41 1012.7 1012.8 0.6
27/07:30pm 11.4 2.5 9.3 87 1.1 W 46 72 25 39 1012.7 1012.8 0.6
27/07:00pm 10.8 1.9 9.1 89 0.8 W 46 65 25 35 1012.6 1012.7 0.4
27/06:30pm 10.8 1.9 9.1 89 0.8 W 46 67 25 36 1012.1 1012.2 0.4
27/06:00pm 10.8 0.8 8.0 83 1.4 W 50 72 27 39 1011.8 1011.9 0.2
27/05:30pm 10.1 -0.7 7.5 84 1.2 W 54 74 29 40 1011.6 1011.7 0.2
27/05:00pm 10.0 0.2 7.1 82 1.4 W 48 69 26 37 1011.3 1011.4 0.2
27/04:30pm 9.7 -0.4 5.9 77 1.8 W 48 69 26 37 1011.2 1011.3 0.2
27/04:00pm 10.1 0.2 4.9 70 2.4 W 46 65 25 35 1011.1 1011.2 0.2
27/03:31pm 9.3 -0.1 5.5 77 1.7 W 44 63 24 34 1011.0 1011.1 0.2
27/03:30pm 9.5 0.2 5.9 78 1.7 W 44 61 24 33 1011.0 1011.1 0.2
27/03:00pm 9.4 -0.8 5.2 75 1.9 W 48 78 26 42 1010.6 1010.7 0.2
27/02:30pm 9.6 0.8 5.6 76 1.8 W 41 65 22 35 1010.9 1011.0 0.2
27/02:00pm 9.6 0.0 3.4 65 2.7 W 43 69 23 37 1010.9 1011.0 0.0
27/01:30pm 9.8 0.0 2.4 60 3.2 W 43 61 23 33 1010.5 1010.6 0.0
27/01:00pm 9.6 -0.1 0.5 53 3.7 W 41 61 22 33 1010.6 1010.7 0.0
27/12:30pm 9.2 0.3 2.8 64 2.7 W 39 63 21 34 1010.6 1010.7 0.0
27/12:00pm 8.9 -0.5 2.3 63 2.8 W 41 59 22 32 1010.6 1010.7 0.0
27/11:30am 9.5 1.6 1.2 56 3.4 WSW 32 54 17 29 1010.5 1010.6 0.0
27/11:11am 9.4 1.6 2.7 63 2.9 WSW 33 50 18 27 1010.4 1010.5 0.0
27/11:10am 9.4 1.3 3.2 65 2.7 WSW 35 54 19 29 1010.3 1010.4 0.0
27/11:03am 8.5 -1.1 3.6 71 2.1 SW 43 61 23 33 1010.5 1010.6 0.0
27/11:00am 8.3 -1.6 3.0 69 2.3 SW 44 61 24 33 1010.6 1010.7 0.0
27/10:30am 9.6 1.2 3.6 66 2.6 SW 37 57 20 31 1010.1 1010.2 0.0
27/10:00am 8.7 1.0 2.5 65 2.6 WSW 32 56 17 30 1009.8 1009.9 0.0
27/09:35am 9.2 -1.4 1.1 57 3.3 SW 46 65 25 35 1009.1 1009.2 0.0
27/09:30am 9.2 -1.8 0.6 55 3.5 SW 48 65 26 35 1009.1 1009.2 0.0
27/09:00am 8.9 -2.6 0.1 54 3.5 SW 50 63 27 34 1008.5 1008.6 27.4
27/08:30am 8.7 -3.8 0.7 57 3.2 SW 56 69 30 37 1007.9 1008.0 27.4
27/08:18am 8.6 -3.1 1.1 59 3.1 SW 52 70 28 38 1007.6 1007.6 27.4
27/08:00am 8.5 -3.7 0.0 55 3.4 SW 54 67 29 36 1007.2 1007.2 27.4
27/07:38am 8.5 -3.9 -1.0 51 3.7 SW 54 72 29 39 1006.7 1006.7 27.4
27/07:30am 8.6 -3.8 1.3 60 3.0 SW 56 70 30 38 1006.4 1006.4 27.4
27/07:00am 8.5 -2.4 3.4 70 2.2 SW 50 65 27 35 1005.5 1005.6 27.4
27/06:30am 7.9 -2.4 2.8 70 2.2 SW 46 69 25 37 1005.2 1005.3 27.4
27/06:27am 7.8 -1.9 3.1 72 2.0 SW 43 61 23 33 1005.1 1005.2 27.4
27/06:19am 7.6 -2.3 2.9 72 2.0 SSW 44 65 24 35 1005.0 1005.1 27.4
27/06:00am 8.0 -4.5 2.3 67 2.4 SW 57 76 31 41 1004.3 1004.4 27.4
27/05:31am 8.2 -1.9 3.7 73 1.9 SW 46 65 25 35 1003.8 1003.9 27.4
27/05:30am 8.1 -2.0 3.8 74 1.9 SW 46 63 25 34 1003.7 1003.8 27.4
27/05:00am 8.4 -3.2 3.7 72 2.0 SW 54 74 29 40 1002.9 1003.0 27.4
27/04:31am 8.5 -1.5 4.5 76 1.8 SW 46 69 25 37 1002.2 1002.3 27.4
27/04:30am 8.8 -0.6 5.2 78 1.6 SSW 44 61 24 33 1002.2 1002.3 27.4
27/04:01am 8.7 -1.1 5.4 80 1.5 SW 46 65 25 35 1001.6 1001.7 27.4
27/04:00am 8.6 -1.6 5.2 79 1.5 SW 48 65 26 35 1001.6 1001.7 27.4
27/03:37am 9.1 -2.7 5.7 79 1.6 SW 57 76 31 41 1001.0 1001.1 27.4
27/03:30am 8.8 -4.2 5.4 79 1.5 SW 63 78 34 42 1000.9 1001.0 27.4
27/03:10am 9.1 -2.7 7.4 89 0.8 SW 59 80 32 43 1000.4 1000.5 27.4
27/03:00am 9.2 -4.1 7.5 89 0.8 SW 67 83 36 45 1000.2 1000.3 27.4
27/02:52am 10.2 -0.7 7.3 82 1.4 SW 54 83 29 45 999.9 1000.0 27.4
27/02:30am 10.1 1.2 7.7 85 1.2 SW 44 65 24 35 999.6 999.7 27.4
27/02:00am 10.1 2.5 7.5 84 1.3 W 37 56 20 30 999.1 999.2 27.0
27/01:30am 10.3 1.0 7.7 84 1.3 W 46 65 25 35 998.8 998.9 26.6
27/01:05am 9.9 -1.4 7.3 84 1.2 W 56 74 30 40 998.8 998.9 26.2
27/01:00am 10.5 -0.9 7.4 81 1.5 WNW 57 72 31 39 998.6 998.7 26.0
27/12:30am 10.7 -2.8 8.1 84 1.3 WNW 69 91 37 49 998.1 998.2 26.0
27/12:20am 10.4 -2.7 8.2 86 1.1 NW 67 93 36 50 997.8 997.8 26.0
27/12:12am 10.3 -3.2 8.4 88 0.9 NW 69 89 37 48 997.8 997.8 26.0
27/12:10am 10.5 -2.9 8.6 88 0.9 NW 69 85 37 46 998.0 998.0 26.0
27/12:00am 10.3 -2.4 8.6 89 0.8 NW 65 85 35 46 997.9 997.9 26.0
 
Date/Time
EST
Temp
°C
App
Temp
°C
Dew
Point
°C
Rel
Hum
%
Delta-T
°C
Wind Press
QNH
hPa
Press
MSL
hPa
Rain since
9am
mm
Dir  Spd
km/h
Gust
km/h
Spd
kts
Gust
kts
26/11:56pm 10.2 -1.7 8.6 90 0.8 NW 61 80 33 43 997.9 997.9 26.0
26/11:31pm 9.7 -0.3 8.0 89 0.8 WNW 50 69 27 37 998.8 998.9 25.0
26/11:30pm 9.6 -0.8 7.9 89 0.8 WNW 52 69 28 37 998.8 998.9 24.8
26/11:21pm 9.3 -2.1 7.6 89 0.8 WNW 57 80 31 43 998.7 998.8 24.4
26/11:09pm 9.5 -2.5 8.1 91 0.7 WNW 61 83 33 45 999.2 999.3 23.2
26/11:05pm 9.6 -2.4 8.0 90 0.8 WNW 61 83 33 45 999.0 999.1 22.0
26/11:00pm 9.9 -1.7 8.3 90 0.8 NW 59 76 32 41 998.9 999.0 21.4
26/10:30pm 9.6 -2.9 7.9 89 0.8 NW 63 85 34 46 999.0 999.1 19.0
26/10:00pm 9.5 -3.0 7.8 89 0.8 NW 63 91 34 49 999.1 999.2 18.0
26/09:40pm 9.6 -2.1 8.0 90 0.8 NW 59 82 32 44 999.0 999.1 17.2
26/09:37pm 9.5 -1.2 8.1 91 0.7 NW 54 82 29 44 999.0 999.1 17.2
26/09:36pm 9.5 -0.1 8.1 91 0.7 NW 48 82 26 44 999.1 999.2 17.2
26/09:30pm 9.1 3.7 8.0 93 0.5 WNW 26 69 14 37 999.1 999.2 16.4
26/09:29pm 8.8 4.1 7.7 93 0.5 WNW 22 67 12 36 999.3 999.4 16.4
26/09:00pm 7.9 1.8 6.5 91 0.6 NW 28 39 15 21 1000.2 1000.3 12.4
26/08:30pm 8.2 0.7 6.2 87 0.9 NW 35 46 19 25 1000.8 1000.9 10.0
26/08:00pm 7.8 -2.6 5.9 88 0.9 WNW 50 74 27 40 1001.2 1001.3 8.2
26/07:48pm 8.7 -0.8 6.5 86 1.0 WNW 46 65 25 35 1000.8 1000.9 7.6
26/07:36pm 8.2 -2.1 6.5 89 0.8 NW 50 69 27 37 1001.0 1001.1 7.4
26/07:30pm 8.5 -1.4 6.6 88 0.9 NW 48 69 26 37 1001.1 1001.2 7.0
26/07:00pm 8.7 -0.7 7.2 90 0.7 NW 46 72 25 39 1001.0 1001.1 6.0
26/06:30pm 8.6 0.5 6.9 89 0.8 NW 39 57 21 31 1001.4 1001.5 5.0
26/06:15pm 8.3 2.2 6.6 89 0.8 NW 28 46 15 25 1001.5 1001.6 4.8
26/06:00pm 7.4 1.5 5.7 89 0.8 NW 26 35 14 19 1001.8 1001.9 4.8
26/05:30pm 7.7 -0.8 5.2 84 1.1 NW 39 54 21 29 1002.1 1002.2 3.8
26/05:01pm 7.1 -0.7 4.9 86 1.0 WNW 35 54 19 29 1002.4 1002.5 3.4
26/05:00pm 7.0 -1.2 4.8 86 1.0 WNW 37 54 20 29 1002.4 1002.5 3.4
26/04:48pm 6.9 -1.7 4.6 85 1.0 WNW 39 61 21 33 1002.4 1002.5 3.0
26/04:41pm 7.5 -2.2 4.1 79 1.5 NW 44 61 24 33 1002.3 1002.4 2.0
26/04:30pm 8.3 -1.9 5.4 82 1.3 NNW 48 63 26 34 1002.0 1002.1 1.6
26/04:00pm 8.7 -2.0 4.7 76 1.8 NNW 50 59 27 32 1002.1 1002.2 1.4
26/03:43pm 9.2 -0.2 4.2 71 2.2 NW 43 61 23 33 1002.3 1002.4 1.4
26/03:30pm 9.4 -0.9 2.9 64 2.8 NW 46 56 25 30 1002.5 1002.6 1.4
26/03:14pm 9.5 0.3 3.7 67 2.5 NW 41 59 22 32 1002.6 1002.7 1.4
26/03:00pm 9.6 0.3 3.1 64 2.8 WNW 41 54 22 29 1002.6 1002.7 1.4
26/02:33pm 9.4 -0.2 3.2 65 2.7 WNW 43 61 23 33 1002.8 1002.9 1.4
26/02:30pm 9.3 -0.3 3.3 66 2.6 WNW 43 56 23 30 1002.9 1003.0 1.4
26/02:00pm 9.4 -0.3 3.8 68 2.5 WNW 44 59 24 32 1003.3 1003.4 1.4
26/01:30pm 8.9 -0.6 3.9 71 2.2 WNW 43 57 23 31 1003.7 1003.8 1.4
26/01:00pm 6.8 -2.5 3.1 77 1.6 WNW 41 61 22 33 1004.1 1004.2 1.4
26/12:41pm 8.6 -0.4 4.8 77 1.7 W 41 59 22 32 1004.4 1004.5 0.4
26/12:30pm 8.3 -2.0 2.8 68 2.3 WNW 46 59 25 32 1004.4 1004.5 0.4
26/12:12pm 9.8 -0.6 1.9 58 3.3 WNW 46 70 25 38 1004.2 1004.3 0.4
26/12:00pm 9.9 -0.1 2.0 58 3.4 W 44 59 24 32 1004.4 1004.5 0.4
26/11:30am 9.7 0.7 2.3 60 3.1 W 39 59 21 32 1004.5 1004.6 0.4
26/11:05am 9.2 -1.2 2.1 61 3.0 W 46 65 25 35 1004.7 1004.8 0.4
26/11:00am 9.1 -1.7 2.2 62 2.9 W 48 65 26 35 1004.7 1004.8 0.4
26/10:54am 9.4 -1.0 2.3 61 3.0 W 46 65 25 35 1004.6 1004.7 0.4
26/10:30am 9.2 -1.6 1.9 60 3.1 W 48 65 26 35 1004.3 1004.4 0.4
26/10:00am 9.2 -0.4 1.4 58 3.2 W 41 61 22 33 1004.2 1004.3 0.4
26/09:30am 8.0 -1.9 1.6 64 2.6 W 43 61 23 33 1004.2 1004.3 0.4
26/09:18am 7.4 -4.4 2.5 71 2.0 W 54 72 29 39 1004.2 1004.3 0.4
26/09:13am 7.7 -1.2 3.0 72 2.0 W 39 72 21 39 1004.1 1004.2 0.4
26/09:08am 8.6 1.7 2.8 67 2.5 WSW 28 59 15 32 1004.2 1004.3 0.0
26/09:00am 8.8 2.3 2.4 64 2.7 WSW 26 52 14 28 1004.1 1004.2 14.4
26/08:58am 8.7 1.6 1.6 61 2.9 WSW 28 52 15 28 1004.2 1004.3 14.4
26/08:30am 8.9 -0.4 0.6 56 3.4 W 39 63 21 34 1004.1 1004.2 14.4
26/08:00am 8.9 0.8 1.3 59 3.1 WSW 33 52 18 28 1003.8 1003.9 14.4
26/07:30am 8.0 -1.6 1.2 62 2.8 W 41 61 22 33 1003.6 1003.7 14.4
26/07:00am 6.7 -4.8 2.2 73 1.9 W 52 72 28 39 1003.2 1003.3 14.4
26/06:30am 8.8 -1.2 2.4 64 2.7 W 44 69 24 37 1002.1 1002.2 14.0
26/06:00am 8.6 -2.7 3.4 70 2.3 W 52 80 28 43 1001.3 1001.4 14.0
26/05:30am 8.5 -2.5 1.0 59 3.1 W 48 72 26 39 1001.0 1001.1 14.0
26/05:29am 8.6 -2.7 1.5 61 2.9 W 50 72 27 39 1000.9 1001.0 14.0
26/05:03am 6.2 -3.8 1.9 74 1.7 WSW 44 95 24 51 1000.5 1000.6 14.0
26/05:00am 8.3 -1.1 4.5 77 1.7 WSW 43 74 23 40 1000.8 1000.9 13.6
26/04:54am 8.0 -3.2 4.0 76 1.7 WSW 52 83 28 45 1000.5 1000.6 13.6
26/04:53am 7.9 -3.3 3.9 76 1.7 WSW 52 83 28 45 1000.6 1000.7 13.6
26/04:30am 8.2 -2.2 2.2 66 2.5 W 46 72 25 39 1000.0 1000.1 13.4

Other Formats:

Comma delimited format used in spreadsheet applications
http://www.bom.gov.au/fwo/IDT60801/IDT60801.95954.axf

JavaScript Object Notation format (JSON) in row-major order
http://www.bom.gov.au/fwo/IDT60801/IDT60801.95954.json